Time;durP1;ratioP1;P1;durP2;ratioP2;P2;SDS_P1;SDS_P2;PMS_P1;PMS_P2;Temp;Humidity;BMP_temperature;BMP_pressure;BME280_temperature;BME280_humidity;BME280_pressure;Samples;Min_cycle;Max_cycle;Signal;HPM_P1;HPM_P2
2021/05/24 00:00:13;;;;;;;2.03;1.02;;;20.80;46.80;;;;;;5072728;28;20462;-78
2021/05/24 00:02:40;;;;;;;2.97;1.20;;;20.70;46.90;;;;;;5064964;28;20360;-80
2021/05/24 00:05:09;;;;;;;4.95;1.05;;;20.60;46.50;;;;;;5054958;28;20031;-80
2021/05/24 00:07:36;;;;;;;3.72;1.38;;;20.50;47.20;;;;;;5072322;28;20024;-81
2021/05/24 00:10:05;;;;;;;1.90;0.90;;;20.60;46.90;;;;;;5073004;28;20081;-80
2021/05/24 00:12:31;;;;;;;1.10;1.05;;;20.60;47.00;;;;;;5055042;28;20048;-78
2021/05/24 00:14:59;;;;;;;3.63;1.88;;;20.70;46.80;;;;;;5072141;28;20031;-80
2021/05/24 00:17:26;;;;;;;0.90;0.82;;;20.60;47.10;;;;;;5038525;28;20093;-80
2021/05/24 00:19:52;;;;;;;2.50;1.15;;;20.60;47.10;;;;;;5071928;28;20437;-80
2021/05/24 00:22:18;;;;;;;1.63;1.15;;;20.60;46.40;;;;;;5038182;28;20055;-80
2021/05/24 00:24:45;;;;;;;3.10;1.10;;;20.60;46.70;;;;;;5067723;28;20108;-81
2021/05/24 00:27:12;;;;;;;2.92;0.88;;;20.50;47.00;;;;;;5042575;28;20452;-80
2021/05/24 00:29:39;;;;;;;1.85;0.77;;;20.60;47.10;;;;;;5066066;28;20123;-80
2021/05/24 00:32:06;;;;;;;1.60;0.98;;;20.70;46.50;;;;;;5054474;28;20078;-81
2021/05/24 00:34:33;;;;;;;1.45;1.33;;;20.60;47.00;;;;;;5065864;28;20360;-79
2021/05/24 00:36:59;;;;;;;3.17;1.70;;;20.60;46.60;;;;;;5064657;28;20044;-80
2021/05/24 00:39:26;;;;;;;0.88;0.75;;;20.60;46.90;;;;;;5056070;28;20025;-79
2021/05/24 00:41:52;;;;;;;0.80;0.80;;;20.60;46.40;;;;;;5072176;28;20028;-80
2021/05/24 00:44:18;;;;;;;1.98;0.95;;;20.60;46.40;;;;;;5071600;28;20021;-80
2021/05/24 00:46:45;;;;;;;2.20;1.00;;;20.50;46.80;;;;;;5055767;28;20024;-80
2021/05/24 00:49:11;;;;;;;1.02;0.80;;;20.50;46.70;;;;;;5071142;28;20040;-79
2021/05/24 00:51:38;;;;;;;5.20;1.55;;;20.40;46.90;;;;;;5052308;28;20114;-80
2021/05/24 00:54:04;;;;;;;1.90;1.05;;;20.30;46.80;;;;;;5069405;28;20033;-81
2021/05/24 00:56:31;;;;;;;4.40;1.13;;;20.20;47.20;;;;;;5072560;28;20029;-81
2021/05/24 00:58:58;;;;;;;3.50;0.95;;;20.30;47.10;;;;;;5072308;28;20039;-80
2021/05/24 01:01:28;;;;;;;2.28;0.90;;;20.10;47.10;;;;;;5061909;28;20029;-80
2021/05/24 01:03:57;;;;;;;3.38;0.95;;;20.00;47.30;;;;;;5065963;28;20112;-81
2021/05/24 01:06:23;;;;;;;4.43;1.17;;;19.90;47.30;;;;;;5069940;28;20028;-81
2021/05/24 01:08:50;;;;;;;1.08;0.98;;;19.90;47.70;;;;;;5071537;28;20028;-81
2021/05/24 01:11:18;;;;;;;2.30;0.80;;;19.90;47.50;;;;;;5069662;28;20033;-80
2021/05/24 01:13:45;;;;;;;3.53;0.95;;;19.80;47.60;;;;;;5067656;28;20403;-81
2021/05/24 01:16:11;;;;;;;1.60;1.20;;;19.90;47.40;;;;;;5053995;28;20024;-81
2021/05/24 01:18:37;;;;;;;1.27;1.23;;;19.70;47.60;;;;;;5071793;28;20033;-81
2021/05/24 01:21:13;;;;;;;2.40;0.90;;;19.70;47.80;;;;;;5057266;28;20035;-79
2021/05/24 01:23:41;;;;;;;2.25;1.58;;;19.70;47.80;;;;;;5066107;28;20051;-81
2021/05/24 01:26:09;;;;;;;1.67;1.13;;;19.50;48.00;;;;;;5069145;28;20448;-80
2021/05/24 01:28:35;;;;;;;5.20;1.58;;;19.50;48.40;;;;;;5060768;28;20037;-79
2021/05/24 01:31:04;;;;;;;1.45;1.17;;;19.50;48.50;;;;;;5063424;28;20035;-79
2021/05/24 01:33:33;;;;;;;3.55;0.95;;;19.40;48.70;;;;;;5051782;28;20049;-80
2021/05/24 01:36:02;;;;;;;7.30;1.77;;;19.30;48.60;;;;;;5071389;28;20039;-79
2021/05/24 01:38:28;;;;;;;2.95;1.27;;;19.10;49.20;;;;;;5062140;28;20399;-81
2021/05/24 01:40:55;;;;;;;5.32;1.58;;;19.30;49.10;;;;;;5067530;28;20032;-81
2021/05/24 01:43:21;;;;;;;2.97;0.82;;;19.20;49.20;;;;;;5051119;28;20025;-80
2021/05/24 01:45:47;;;;;;;4.65;1.40;;;19.10;49.30;;;;;;5072421;28;20029;-79
2021/05/24 01:48:14;;;;;;;3.22;1.27;;;19.00;49.50;;;;;;5075888;28;20021;-81
2021/05/24 01:50:40;;;;;;;1.20;1.10;;;19.00;49.60;;;;;;5059646;28;20031;-78
2021/05/24 01:53:07;;;;;;;3.47;1.20;;;19.00;49.60;;;;;;5073720;28;20153;-81
2021/05/24 01:55:34;;;;;;;2.95;1.27;;;18.90;49.40;;;;;;5060378;28;20039;-80
2021/05/24 01:58:00;;;;;;;6.10;1.27;;;18.70;50.00;;;;;;5067311;28;20017;-80
2021/05/24 02:00:27;;;;;;;1.27;1.10;;;18.80;50.10;;;;;;5046273;28;20035;-81
2021/05/24 02:02:54;;;;;;;1.75;1.35;;;18.70;50.20;;;;;;5074446;28;20025;-81
2021/05/24 02:05:23;;;;;;;2.53;1.85;;;18.40;50.70;;;;;;5056538;28;20390;-81
2021/05/24 02:07:51;;;;;;;2.50;1.05;;;18.30;50.50;;;;;;5070496;28;20024;-81
2021/05/24 02:10:24;;;;;;;1.38;1.25;;;18.10;51.00;;;;;;5062673;28;20032;-80
2021/05/24 02:12:50;;;;;;;2.42;1.25;;;18.00;51.10;;;;;;5058190;28;20118;-80
2021/05/24 02:15:21;;;;;;;4.90;1.25;;;18.00;51.80;;;;;;5062557;28;20043;-80
2021/05/24 02:17:47;;;;;;;7.10;1.95;;;17.80;51.70;;;;;;5047372;28;20119;-80
2021/05/24 02:20:19;;;;;;;3.60;1.83;;;17.80;52.10;;;;;;5067990;28;20028;-80
2021/05/24 02:22:45;;;;;;;2.07;1.60;;;17.60;53.00;;;;;;5069529;28;20024;-80
2021/05/24 02:25:13;;;;;;;1.85;1.30;;;17.50;52.60;;;;;;5074385;28;20048;-80
2021/05/24 02:27:39;;;;;;;4.55;1.85;;;17.50;52.50;;;;;;5065745;28;20025;-80
2021/05/24 02:30:08;;;;;;;4.30;1.73;;;17.30;52.20;;;;;;5072777;28;20398;-78
2021/05/24 02:32:34;;;;;;;1.95;1.30;;;17.40;53.20;;;;;;5057357;28;20119;-81
2021/05/24 02:35:02;;;;;;;6.18;1.58;;;17.00;52.50;;;;;;5055014;28;20498;-80
2021/05/24 02:37:29;;;;;;;4.03;2.05;;;17.10;54.00;;;;;;5074493;28;20031;-80
2021/05/24 02:39:55;;;;;;;5.32;1.75;;;17.00;53.50;;;;;;5076597;28;20456;-82
2021/05/24 02:42:22;;;;;;;2.25;1.52;;;16.80;53.60;;;;;;5064184;28;20025;-81
2021/05/24 02:44:48;;;;;;;6.60;2.00;;;16.80;54.40;;;;;;5075560;28;20036;-80
2021/05/24 02:47:15;;;;;;;3.60;1.45;;;16.60;54.50;;;;;;5074625;28;20044;-82
2021/05/24 02:49:44;;;;;;;1.92;1.45;;;16.50;55.00;;;;;;5072071;28;20523;-80
2021/05/24 02:52:12;;;;;;;3.25;1.50;;;16.30;55.10;;;;;;5072180;28;20047;-79
2021/05/24 02:54:39;;;;;;;3.47;1.50;;;16.30;55.30;;;;;;5054700;28;20024;-82
2021/05/24 02:57:05;;;;;;;2.70;2.03;;;16.40;55.40;;;;;;5061534;28;20029;-81
2021/05/24 02:59:32;;;;;;;1.38;1.30;;;16.40;54.90;;;;;;5068539;28;20020;-81
2021/05/24 03:02:01;;;;;;;3.53;1.90;;;16.20;55.20;;;;;;5051964;28;20024;-81
2021/05/24 03:04:30;;;;;;;3.50;1.55;;;16.20;56.60;;;;;;5073942;28;20384;-81
2021/05/24 03:06:56;;;;;;;5.80;1.30;;;16.00;55.80;;;;;;5050947;28;20032;-81
2021/05/24 03:09:23;;;;;;;2.22;1.60;;;16.00;56.00;;;;;;5061624;28;20043;-82
2021/05/24 03:11:51;;;;;;;4.68;2.13;;;15.80;57.40;;;;;;5070601;28;20104;-81
2021/05/24 03:14:17;;;;;;;1.42;1.20;;;15.80;56.50;;;;;;5067324;28;20066;-81
2021/05/24 03:16:44;;;;;;;6.93;2.00;;;15.90;55.90;;;;;;5070537;28;20502;-81
2021/05/24 03:19:10;;;;;;;6.38;1.60;;;16.00;56.50;;;;;;5051589;28;20040;-81
2021/05/24 03:21:37;;;;;;;3.03;1.30;;;15.70;57.00;;;;;;5072819;28;20024;-81
2021/05/24 03:24:03;;;;;;;3.17;2.38;;;15.90;55.90;;;;;;5063474;28;20022;-80
2021/05/24 03:26:30;;;;;;;1.35;1.25;;;16.10;55.90;;;;;;5070504;28;20024;-81
2021/05/24 03:28:56;;;;;;;5.57;1.95;;;15.80;56.70;;;;;;5071199;28;20024;-81
2021/05/24 03:31:23;;;;;;;3.28;2.47;;;15.70;57.00;;;;;;5059327;28;20052;-82
2021/05/24 03:33:49;;;;;;;2.28;1.35;;;15.70;56.10;;;;;;5065669;28;20037;-81
2021/05/24 03:36:15;;;;;;;8.25;3.03;;;15.90;55.50;;;;;;5055870;28;20031;-81
2021/05/24 03:38:43;;;;;;;2.60;1.67;;;15.80;55.80;;;;;;5058825;28;20024;-80
2021/05/24 03:41:09;;;;;;;5.53;2.28;;;15.80;55.40;;;;;;5061992;28;20032;-80
2021/05/24 03:43:36;;;;;;;4.32;3.05;;;15.80;55.60;;;;;;5073121;28;20020;-79
2021/05/24 03:46:03;;;;;;;5.88;1.40;;;15.60;56.10;;;;;;5074185;28;20170;-80
2021/05/24 03:48:29;;;;;;;4.78;1.83;;;15.60;56.90;;;;;;5057540;28;20040;-80
2021/05/24 03:50:56;;;;;;;1.77;1.27;;;15.40;57.50;;;;;;5039808;28;20029;-80
2021/05/24 03:53:22;;;;;;;5.78;1.73;;;15.50;57.40;;;;;;5061851;28;20031;-80
2021/05/24 03:55:48;;;;;;;2.40;1.83;;;15.50;56.70;;;;;;5058665;28;20036;-80
2021/05/24 03:58:15;;;;;;;5.90;2.22;;;15.50;56.10;;;;;;5071507;28;20082;-79
2021/05/24 04:00:41;;;;;;;4.65;2.03;;;15.40;57.60;;;;;;5055373;28;20016;-80
2021/05/24 04:03:08;;;;;;;4.05;1.50;;;15.60;56.20;;;;;;5076943;28;20024;-81
2021/05/24 04:05:37;;;;;;;3.90;1.52;;;15.70;56.90;;;;;;5043730;28;20024;-80
2021/05/24 04:08:05;;;;;;;3.22;1.67;;;15.60;56.80;;;;;;5069313;28;20042;-81
2021/05/24 04:13:35;;;;;;;6.72;3.28;;;15.40;56.60;;;;;;4981746;28;20113;-80
2021/05/24 04:16:01;;;;;;;3.05;1.52;;;15.20;56.40;;;;;;5032625;28;20472;-80
2021/05/24 04:18:34;;;;;;;5.60;2.83;;;15.30;56.90;;;;;;5070107;28;20046;-80
2021/05/24 04:21:02;;;;;;;;;;;15.20;57.70;;;;;;5069499;28;20028;-79
2021/05/24 04:23:28;;;;;;;1.63;1.23;;;15.20;56.60;;;;;;5057261;28;19910;-79
2021/05/24 04:25:55;;;;;;;1.65;1.52;;;15.10;56.80;;;;;;5059411;28;20535;-79
2021/05/24 04:28:21;;;;;;;3.88;1.77;;;15.10;57.30;;;;;;5055679;28;20028;-79
2021/05/24 04:30:47;;;;;;;2.25;2.08;;;15.10;57.10;;;;;;5073558;28;20062;-77
2021/05/24 04:33:14;;;;;;;3.90;2.13;;;15.20;58.10;;;;;;5070244;28;20024;-79
2021/05/24 04:35:40;;;;;;;3.72;2.60;;;15.10;58.00;;;;;;5072237;28;20107;-79
2021/05/24 04:38:07;;;;;;;4.50;2.70;;;15.00;58.40;;;;;;5068781;28;20020;-78
2021/05/24 04:40:33;;;;;;;5.05;2.03;;;15.00;58.60;;;;;;5047000;28;20024;-78
2021/05/24 04:42:59;;;;;;;7.43;1.88;;;14.90;58.30;;;;;;5041869;28;20036;-80
2021/05/24 04:45:26;;;;;;;7.93;2.05;;;14.80;60.00;;;;;;5067062;28;20039;-80
2021/05/24 04:47:53;;;;;;;5.82;1.92;;;14.70;60.10;;;;;;5071851;28;20115;-80
2021/05/24 04:50:19;;;;;;;17.73;4.07;;;14.70;61.60;;;;;;5070475;28;20504;-80
2021/05/24 04:52:46;;;;;;;4.55;2.45;;;14.50;60.50;;;;;;5066879;28;20033;-79
2021/05/24 04:55:13;;;;;;;3.75;2.35;;;14.50;61.40;;;;;;5060444;28;20029;-80
2021/05/24 04:57:40;;;;;;;7.78;3.33;;;14.50;62.10;;;;;;5072297;28;20126;-80
2021/05/24 05:00:09;;;;;;;2.33;1.40;;;14.60;60.00;;;;;;5072815;28;20093;-79
2021/05/24 05:02:38;;;;;;;4.32;2.20;;;14.70;59.80;;;;;;5057515;28;20020;-80
2021/05/24 05:05:07;;;;;;;2.85;1.80;;;14.80;60.10;;;;;;5063292;28;20016;-79
2021/05/24 05:07:33;;;;;;;4.78;1.80;;;14.90;59.00;;;;;;5059488;28;20452;-79
2021/05/24 05:10:01;;;;;;;4.32;2.03;;;14.90;58.80;;;;;;5066129;28;20017;-80
2021/05/24 05:12:28;;;;;;;4.47;2.08;;;14.90;59.20;;;;;;5061741;28;20032;-80
2021/05/24 05:14:55;;;;;;;4.55;2.92;;;14.90;60.10;;;;;;5075757;28;20029;-81
2021/05/24 05:17:22;;;;;;;3.55;2.80;;;14.90;58.70;;;;;;5077244;28;20356;-80
2021/05/24 05:19:48;;;;;;;4.18;1.90;;;14.90;59.50;;;;;;5060057;28;20052;-81
2021/05/24 05:22:15;;;;;;;3.90;1.75;;;14.80;59.30;;;;;;5074899;28;20099;-80
2021/05/24 05:24:41;;;;;;;9.45;3.05;;;14.80;59.70;;;;;;5077691;28;20046;-80
2021/05/24 05:27:08;;;;;;;2.50;2.30;;;14.80;59.90;;;;;;5073892;28;20119;-81
2021/05/24 05:29:34;;;;;;;3.25;1.85;;;14.70;59.60;;;;;;5065792;28;20474;-80
2021/05/24 05:32:01;;;;;;;2.65;2.42;;;14.70;58.80;;;;;;5057207;28;20032;-81
2021/05/24 05:34:27;;;;;;;5.97;2.10;;;14.70;59.70;;;;;;5068874;28;20032;-80
2021/05/24 05:36:54;;;;;;;4.57;2.67;;;14.70;59.60;;;;;;5059255;28;20063;-80
2021/05/24 05:39:20;;;;;;;7.00;1.80;;;14.70;59.90;;;;;;5068242;28;20029;-80
2021/05/24 05:41:46;;;;;;;4.78;1.90;;;14.70;59.60;;;;;;5079461;28;20397;-79
2021/05/24 05:44:13;;;;;;;4.55;2.22;;;14.70;60.70;;;;;;5062186;28;20029;-79
2021/05/24 05:46:39;;;;;;;5.53;2.70;;;14.60;60.90;;;;;;5070087;28;20021;-79
2021/05/24 05:49:06;;;;;;;6.97;2.10;;;14.50;60.50;;;;;;5081262;28;20035;-80
2021/05/24 05:51:32;;;;;;;5.80;2.03;;;14.50;59.90;;;;;;5076916;28;20039;-79
2021/05/24 05:53:59;;;;;;;1.90;1.70;;;14.50;61.10;;;;;;5082688;28;20111;-80
2021/05/24 05:56:25;;;;;;;5.63;2.35;;;14.50;61.30;;;;;;5076644;28;20032;-80
2021/05/24 05:58:52;;;;;;;3.78;2.13;;;14.50;61.20;;;;;;5075963;28;20075;-79
2021/05/24 06:01:18;;;;;;;6.00;3.05;;;14.40;61.00;;;;;;5077314;28;20036;-79
2021/05/24 06:03:44;;;;;;;10.13;3.95;;;14.40;61.30;;;;;;5072936;28;20025;-79
2021/05/24 06:06:12;;;;;;;2.80;2.50;;;14.50;60.80;;;;;;5061172;28;20035;-80
2021/05/24 06:08:39;;;;;;;2.70;1.75;;;14.50;60.70;;;;;;5063078;28;20043;-79
2021/05/24 06:11:06;;;;;;;1.83;1.73;;;14.40;61.90;;;;;;5052866;28;20037;-79
2021/05/24 06:13:33;;;;;;;2.10;1.55;;;14.40;61.60;;;;;;5076619;28;20101;-79
2021/05/24 06:15:59;;;;;;;8.10;2.13;;;14.30;62.90;;;;;;5064313;28;20035;-80
2021/05/24 06:18:26;;;;;;;3.65;1.92;;;14.30;61.70;;;;;;5076585;28;20031;-80
2021/05/24 06:20:52;;;;;;;7.93;2.05;;;14.10;64.20;;;;;;5049578;28;20402;-79
2021/05/24 06:23:19;;;;;;;4.50;1.67;;;14.30;62.00;;;;;;5068332;28;20026;-79
2021/05/24 06:25:45;;;;;;;5.28;2.25;;;14.40;61.80;;;;;;5076336;28;20444;-80
2021/05/24 06:28:13;;;;;;;1.80;1.70;;;14.40;61.60;;;;;;5062816;28;20025;-80
2021/05/24 06:30:40;;;;;;;6.25;2.65;;;14.20;63.20;;;;;;5076303;28;20483;-80
2021/05/24 06:33:06;;;;;;;4.47;2.63;;;14.30;62.00;;;;;;5058665;28;20055;-81
2021/05/24 06:35:33;;;;;;;4.78;2.00;;;14.30;61.10;;;;;;5067252;28;20072;-80
2021/05/24 06:38:00;;;;;;;6.38;2.33;;;14.10;64.10;;;;;;5066869;28;20017;-80
2021/05/24 06:40:27;;;;;;;4.57;1.98;;;14.10;63.60;;;;;;5075746;28;20025;-80
2021/05/24 06:42:53;;;;;;;6.05;2.35;;;13.80;66.00;;;;;;5063620;28;20414;-80
2021/05/24 06:45:20;;;;;;;2.30;2.00;;;13.90;63.10;;;;;;5076358;28;20021;-80
2021/05/24 06:47:47;;;;;;;1.40;1.30;;;14.00;64.00;;;;;;5058657;28;20063;-80
2021/05/24 06:50:15;;;;;;;3.45;2.10;;;14.10;62.50;;;;;;5075993;28;20032;-81
2021/05/24 06:52:42;;;;;;;2.47;2.03;;;14.20;62.20;;;;;;5062484;28;20460;-80
2021/05/24 06:55:10;;;;;;;4.05;2.13;;;14.20;61.50;;;;;;5070332;28;20035;-80
2021/05/24 06:57:36;;;;;;;5.28;2.53;;;14.20;60.60;;;;;;5047760;28;20020;-80
2021/05/24 07:00:10;;;;;;;2.35;2.17;;;14.30;61.60;;;;;;5051874;28;20154;-80
2021/05/24 07:02:44;;;;;;;2.33;2.03;;;14.20;62.40;;;;;;5075285;28;20024;-80
2021/05/24 07:05:11;;;;;;;5.72;1.80;;;14.20;61.60;;;;;;5075508;28;20054;-80
2021/05/24 07:07:38;;;;;;;5.20;2.42;;;14.20;61.70;;;;;;5075496;28;20107;-80
2021/05/24 07:10:06;;;;;;;6.32;1.98;;;14.20;61.40;;;;;;5051030;28;20548;-80
2021/05/24 07:12:32;;;;;;;8.80;2.35;;;14.30;62.00;;;;;;5055750;28;20119;-80
2021/05/24 07:15:00;;;;;;;9.45;3.75;;;14.30;61.00;;;;;;5075533;28;20021;-81
2021/05/24 07:17:26;;;;;;;6.43;2.25;;;14.20;61.20;;;;;;5066077;28;20329;-80
2021/05/24 07:19:53;;;;;;;5.68;3.78;;;14.10;63.20;;;;;;5052681;28;20082;-80
2021/05/24 07:22:19;;;;;;;2.80;2.13;;;14.10;62.20;;;;;;5075048;28;20025;-80
2021/05/24 07:24:46;;;;;;;11.13;2.65;;;14.10;62.90;;;;;;5057176;28;20024;-80
2021/05/24 07:27:12;;;;;;;6.68;2.92;;;14.10;61.40;;;;;;5074846;28;20043;-80
2021/05/24 07:29:38;;;;;;;3.70;2.15;;;14.10;62.70;;;;;;5075016;28;20035;-80
2021/05/24 07:32:10;;;;;;;2.92;2.25;;;14.00;63.30;;;;;;5075043;28;20039;-80
2021/05/24 07:34:38;;;;;;;4.30;2.03;;;14.00;63.50;;;;;;5075944;28;20029;-80
2021/05/24 07:37:05;;;;;;;5.18;2.30;;;14.00;64.20;;;;;;5061243;28;20036;-80
2021/05/24 07:39:31;;;;;;;15.48;2.53;;;13.90;65.10;;;;;;5072796;28;20074;-80
2021/05/24 07:42:00;;;;;;;10.48;4.63;;;14.00;62.50;;;;;;5058390;28;20036;-80
2021/05/24 07:44:32;;;;;;;9.95;2.55;;;14.00;62.80;;;;;;5076641;28;20016;-79
2021/05/24 07:46:59;;;;;;;10.23;2.25;;;13.90;64.20;;;;;;5075401;28;20060;-80
2021/05/24 07:49:25;;;;;;;4.13;2.05;;;14.10;62.80;;;;;;5073692;28;20086;-80
2021/05/24 07:51:52;;;;;;;7.28;2.97;;;14.00;64.10;;;;;;5074115;28;20460;-80
2021/05/24 07:54:19;;;;;;;8.18;2.47;;;14.10;63.90;;;;;;5074712;28;20085;-81
2021/05/24 07:56:47;;;;;;;17.00;2.85;;;14.00;64.10;;;;;;5072320;28;20024;-80
2021/05/24 07:59:14;;;;;;;3.85;1.75;;;14.10;62.80;;;;;;5059951;28;20025;-80
2021/05/24 08:01:41;;;;;;;6.40;2.13;;;14.10;62.40;;;;;;5071947;28;20363;-80
2021/05/24 08:04:07;;;;;;;8.45;2.97;;;14.10;63.20;;;;;;5058026;28;20491;-81
2021/05/24 08:06:34;;;;;;;11.65;3.85;;;14.20;62.50;;;;;;5075208;28;20024;-81
2021/05/24 08:09:00;;;;;;;2.13;1.95;;;14.30;63.50;;;;;;5074510;28;20025;-80
2021/05/24 08:11:27;;;;;;;5.90;3.92;;;14.10;62.40;;;;;;5073557;28;20039;-81
2021/05/24 08:13:54;;;;;;;4.97;2.15;;;14.20;63.10;;;;;;5056798;28;20024;-80
2021/05/24 08:16:21;;;;;;;7.20;3.42;;;14.10;62.50;;;;;;5073909;28;20029;-80
2021/05/24 08:18:48;;;;;;;5.68;3.22;;;13.90;64.00;;;;;;5074141;28;20063;-80
2021/05/24 08:21:15;;;;;;;3.90;1.83;;;13.90;64.40;;;;;;5064706;28;20463;-80
2021/05/24 08:23:43;;;;;;;6.90;1.98;;;13.90;64.10;;;;;;5068189;28;20028;-81
2021/05/24 08:26:09;;;;;;;9.00;2.20;;;13.80;64.70;;;;;;5060241;28;20040;-80
2021/05/24 08:28:36;;;;;;;7.50;2.03;;;13.70;66.60;;;;;;5050469;28;20043;-80
2021/05/24 08:31:03;;;;;;;4.95;2.40;;;13.70;65.00;;;;;;5063598;28;20068;-80
2021/05/24 08:33:30;;;;;;;2.63;2.42;;;13.80;65.00;;;;;;5065199;28;20053;-80
2021/05/24 08:35:57;;;;;;;14.23;2.65;;;13.70;64.10;;;;;;5054371;28;20367;-80
2021/05/24 08:38:25;;;;;;;9.30;2.67;;;13.80;63.50;;;;;;5068394;28;20104;-80
2021/05/24 08:40:52;;;;;;;6.65;2.53;;;13.70;64.90;;;;;;5073983;28;20028;-81
2021/05/24 08:43:18;;;;;;;5.60;2.30;;;13.60;67.30;;;;;;5071584;28;20031;-80
2021/05/24 08:45:45;;;;;;;13.80;3.80;;;13.60;65.90;;;;;;5064603;28;20468;-80
2021/05/24 08:48:13;;;;;;;7.30;2.28;;;13.70;65.70;;;;;;5074051;28;20048;-80
2021/05/24 08:50:40;;;;;;;9.02;2.50;;;13.70;66.90;;;;;;5055566;28;20028;-80
2021/05/24 08:53:09;;;;;;;2.92;2.67;;;13.70;65.80;;;;;;5080668;28;20032;-80
2021/05/24 08:55:36;;;;;;;8.82;2.35;;;13.90;65.00;;;;;;5060790;28;20028;-80
2021/05/24 08:58:07;;;;;;;10.73;3.53;;;13.80;64.30;;;;;;5085261;28;20116;-80
2021/05/24 09:00:33;;;;;;;2.95;2.05;;;13.80;65.80;;;;;;5062899;28;20104;-81
2021/05/24 09:03:00;;;;;;;4.70;3.00;;;13.80;65.20;;;;;;5063183;28;20024;-80
2021/05/24 09:09:38;;;;;;;11.07;3.63;;;14.00;65.00;;;;;;5083947;28;20415;-80
2021/05/24 09:12:20;;;;;;;15.63;3.47;;;14.00;63.40;;;;;;5069281;28;20466;-80
2021/05/24 09:14:57;;;;;;;9.23;3.85;;;13.90;63.70;;;;;;5054431;28;20032;-80
2021/05/24 09:17:23;;;;;;;5.97;2.28;;;13.80;64.80;;;;;;5074856;28;20058;-80
2021/05/24 09:19:50;;;;;;;9.50;3.30;;;13.90;64.50;;;;;;5077807;28;20021;-80
2021/05/24 09:22:16;;;;;;;12.77;2.50;;;13.90;65.00;;;;;;5065251;28;20056;-81
2021/05/24 09:24:44;;;;;;;6.63;2.67;;;14.00;64.60;;;;;;5081004;28;20366;-80
2021/05/24 09:27:28;;;;;;;10.13;3.45;;;13.90;64.90;;;;;;5051763;28;20067;-80
2021/05/24 09:29:59;;;;;;;5.45;2.97;;;14.00;64.90;;;;;;5072357;28;20077;-81
2021/05/24 09:32:28;;;;;;;10.63;2.80;;;13.80;65.40;;;;;;5071223;28;20024;-80
2021/05/24 09:34:58;;;;;;;6.20;2.83;;;13.80;64.10;;;;;;5080482;28;20524;-80
2021/05/24 09:37:36;;;;;;;11.48;3.35;;;13.80;64.60;;;;;;5064769;28;20033;-80
2021/05/24 09:40:25;;;;;;;5.30;2.58;;;13.80;65.50;;;;;;5079060;28;20020;-80
2021/05/24 09:42:51;;;;;;;11.95;3.00;;;13.80;64.60;;;;;;5080360;28;20024;-81
2021/05/24 09:45:19;;;;;;;5.55;2.28;;;13.70;66.20;;;;;;5078334;28;20355;-80
2021/05/24 09:47:48;;;;;;;5.72;3.33;;;13.80;64.80;;;;;;5062254;28;20402;-80
2021/05/24 09:50:21;;;;;;;4.25;2.10;;;13.70;65.30;;;;;;5079395;28;20040;-80
2021/05/24 09:52:48;;;;;;;3.92;2.50;;;13.60;64.60;;;;;;5080377;28;20020;-80
2021/05/24 09:55:19;;;;;;;6.22;2.42;;;13.60;64.30;;;;;;5079784;28;20055;-80
2021/05/24 09:58:09;;;;;;;3.50;2.20;;;13.50;65.80;;;;;;5081821;28;20028;-80
2021/05/24 10:00:45;;;;;;;9.63;2.80;;;13.60;65.30;;;;;;5069955;28;20094;-80
2021/05/24 10:03:13;;;;;;;14.48;3.55;;;13.70;64.60;;;;;;5074257;28;20021;-80
2021/05/24 10:05:46;;;;;;;21.13;4.93;;;13.70;64.20;;;;;;5068671;28;20040;-80
2021/05/24 10:08:13;;;;;;;4.72;2.58;;;13.90;64.90;;;;;;5087717;28;20032;-80
2021/05/24 10:10:41;;;;;;;8.90;4.05;;;13.70;64.80;;;;;;5080269;28;20024;-80
2021/05/24 10:13:08;;;;;;;3.33;2.15;;;13.80;65.60;;;;;;5076331;28;20028;-80
2021/05/24 10:15:44;;;;;;;15.40;3.47;;;13.80;64.90;;;;;;5076664;28;20058;-80
2021/05/24 10:18:11;;;;;;;2.22;2.00;;;13.80;65.20;;;;;;5076077;28;20031;-81
2021/05/24 10:20:38;;;;;;;9.32;2.78;;;13.60;65.40;;;;;;5058803;28;20081;-80
2021/05/24 10:23:05;;;;;;;2.90;2.42;;;13.80;66.20;;;;;;5065277;28;20021;-80
2021/05/24 10:25:34;;;;;;;9.70;2.45;;;13.80;65.10;;;;;;5074600;28;20025;-80
2021/05/24 10:28:04;;;;;;;2.60;2.40;;;13.60;65.40;;;;;;5070106;28;20067;-80
2021/05/24 10:30:34;;;;;;;5.68;2.22;;;13.70;66.10;;;;;;5072979;28;20031;-80
2021/05/24 10:33:05;;;;;;;6.47;2.35;;;13.70;66.00;;;;;;5048742;28;20021;-81
2021/05/24 10:35:42;;;;;;;9.40;3.63;;;13.60;65.90;;;;;;5058507;28;20024;-80
2021/05/24 10:38:32;;;;;;;9.13;4.55;;;13.40;65.60;;;;;;5076677;28;20055;-79
2021/05/24 10:41:20;;;;;;;9.63;3.63;;;13.50;66.10;;;;;;5046375;28;20025;-80
2021/05/24 10:43:55;;;;;;;3.40;2.33;;;13.50;66.90;;;;;;5066988;28;20025;-80
2021/05/24 10:46:31;;;;;;;6.47;2.80;;;13.40;66.70;;;;;;5057879;28;20020;-80
2021/05/24 10:49:03;;;;;;;6.13;1.98;;;13.40;67.10;;;;;;5075996;28;20033;-80
2021/05/24 10:51:50;;;;;;;;;;;13.40;67.30;;;;;;5076413;28;20458;-80
2021/05/24 10:54:24;;;;;;;7.47;3.40;;;13.50;66.40;;;;;;5073027;28;19908;-80
2021/05/24 10:57:00;;;;;;;5.20;2.70;;;13.40;66.80;;;;;;5066500;28;20029;-80
2021/05/24 10:59:42;;;;;;;6.65;2.15;;;13.50;67.20;;;;;;5075504;28;20035;-80
2021/05/24 11:02:26;;;;;;;;;;;13.30;67.10;;;;;;5076063;28;20348;-80
2021/05/24 11:05:30;;;;;;;6.03;2.05;;;13.10;67.20;;;;;;5075422;28;20359;-80
2021/05/24 11:08:01;;;;;;;6.22;2.45;;;13.10;67.60;;;;;;5075465;28;20406;-80
2021/05/24 11:10:33;;;;;;;4.28;2.45;;;13.10;68.40;;;;;;5075964;28;20035;-80
2021/05/24 11:13:11;;;;;;;2.77;2.17;;;13.10;67.50;;;;;;5055750;28;20477;-80
2021/05/24 11:15:39;;;;;;;5.78;2.50;;;13.20;67.30;;;;;;5075544;28;20024;-80
2021/05/24 11:18:05;;;;;;;4.93;2.63;;;13.10;67.30;;;;;;5057933;28;20374;-80
2021/05/24 11:20:36;;;;;;;6.10;2.60;;;13.00;67.60;;;;;;5057766;28;20485;-81
2021/05/24 11:25:58;;;;;;;6.35;2.90;;;13.00;67.80;;;;;;5059765;28;20033;-80
2021/05/24 11:28:39;;;;;;;4.45;2.35;;;13.00;67.70;;;;;;5069915;28;20036;-80
2021/05/24 11:31:14;;;;;;;3.90;2.33;;;13.00;67.40;;;;;;5061377;28;20032;-79
2021/05/24 11:33:48;;;;;;;2.17;1.90;;;13.00;67.80;;;;;;5067944;28;20120;-80
2021/05/24 11:36:21;;;;;;;5.85;2.17;;;13.10;68.00;;;;;;5074839;28;20025;-80
2021/05/24 11:39:12;;;;;;;3.80;2.75;;;12.90;68.10;;;;;;5075049;28;20081;-80
2021/05/24 11:41:50;;;;;;;2.42;2.20;;;13.00;67.50;;;;;;5058307;28;20024;-80
2021/05/24 11:44:17;;;;;;;5.78;3.47;;;12.90;67.50;;;;;;5072152;28;20332;-80
2021/05/24 11:46:55;;;;;;;5.60;2.47;;;13.00;67.50;;;;;;5054757;28;20446;-80
2021/05/24 11:49:44;;;;;;;5.90;2.72;;;13.10;68.00;;;;;;5070951;28;20032;-80
2021/05/24 11:52:17;;;;;;;11.02;2.72;;;12.90;67.90;;;;;;5083141;28;20153;-81
2021/05/24 11:54:47;;;;;;;4.60;2.38;;;12.80;67.70;;;;;;5068826;28;20024;-80
2021/05/24 11:57:15;;;;;;;4.32;2.25;;;12.80;69.10;;;;;;5088150;28;20019;-80
2021/05/24 11:59:42;;;;;;;4.90;2.35;;;12.80;68.00;;;;;;5074751;28;20027;-81
2021/05/24 12:02:08;;;;;;;3.72;2.20;;;12.70;68.60;;;;;;5070157;28;20558;-80
2021/05/24 12:04:37;;;;;;;8.13;2.92;;;12.70;69.10;;;;;;5063364;28;20108;-81
2021/05/24 12:07:15;;;;;;;5.95;3.67;;;12.80;68.80;;;;;;5074606;28;20028;-80
2021/05/24 12:09:47;;;;;;;4.85;2.72;;;12.70;67.80;;;;;;5067779;28;20452;-80
2021/05/24 12:12:16;;;;;;;4.80;2.28;;;12.70;67.20;;;;;;5072466;28;20028;-81
2021/05/24 12:14:48;;;;;;;5.40;3.00;;;12.80;67.30;;;;;;5074020;28;20025;-80
2021/05/24 12:17:17;;;;;;;4.45;2.00;;;12.70;68.20;;;;;;5057935;28;20029;-80
2021/05/24 12:19:44;;;;;;;6.65;3.20;;;12.60;69.00;;;;;;5074503;28;20028;-80
2021/05/24 12:22:13;;;;;;;2.80;2.13;;;12.70;68.50;;;;;;5057108;28;20073;-80
2021/05/24 12:24:46;;;;;;;3.10;2.28;;;12.60;68.10;;;;;;5073946;28;20020;-79
2021/05/24 12:27:14;;;;;;;8.57;3.92;;;12.50;69.50;;;;;;5060206;28;20028;-80
2021/05/24 12:30:05;;;;;;;4.10;2.03;;;12.60;69.60;;;;;;5070369;28;20110;-79
2021/05/24 12:32:39;;;;;;;4.88;2.90;;;12.60;68.50;;;;;;5072772;28;20020;-79
2021/05/24 12:35:09;;;;;;;3.00;2.30;;;12.70;68.50;;;;;;5074089;28;20035;-79
2021/05/24 12:37:38;;;;;;;6.70;2.75;;;12.60;70.00;;;;;;5074312;28;20028;-79
2021/05/24 12:40:10;;;;;;;2.83;2.20;;;12.50;70.10;;;;;;5061804;28;20021;-79
2021/05/24 12:42:40;;;;;;;;;;;12.60;69.30;;;;;;5079403;28;20012;-80
2021/05/24 12:45:10;;;;;;;13.75;2.03;;;12.60;68.80;;;;;;5079208;28;19915;-80
2021/05/24 12:47:36;;;;;;;1.90;1.80;;;12.50;70.00;;;;;;5056427;28;20487;-79
2021/05/24 12:50:15;;;;;;;3.20;2.08;;;12.50;70.10;;;;;;5074186;28;20029;-79
2021/05/24 12:52:42;;;;;;;4.60;2.42;;;12.50;69.50;;;;;;5075544;28;20025;-79
2021/05/24 12:55:16;;;;;;;2.17;1.67;;;12.50;69.90;;;;;;5073915;28;20028;-80
2021/05/24 12:57:47;;;;;;;4.07;1.92;;;12.50;70.70;;;;;;5073839;28;20499;-79
2021/05/24 13:00:16;;;;;;;4.43;2.00;;;12.60;69.90;;;;;;5066270;28;20029;-79
2021/05/24 13:02:51;;;;;;;3.13;2.05;;;12.60;68.30;;;;;;5060466;28;20016;-79
2021/05/24 13:05:20;;;;;;;2.00;1.90;;;12.70;67.90;;;;;;5077524;28;20213;-79